createdAt,value
2018-08-09T00:00:10.502Z,17.70
2018-08-09T00:02:39.768Z,17.40
2018-08-09T00:05:08.341Z,17.50
2018-08-09T00:07:37.093Z,17.40
2018-08-09T00:10:07.419Z,17.30
2018-08-09T00:12:36.899Z,17.90
2018-08-09T00:15:06.517Z,17.90
2018-08-09T00:17:35.121Z,18.10
2018-08-09T00:20:04.706Z,18.10
2018-08-09T00:22:33.401Z,18.00
2018-08-09T00:25:01.979Z,17.50
2018-08-09T00:27:30.348Z,17.60
2018-08-09T00:29:59.412Z,17.10
2018-08-09T00:32:28.049Z,17.40
2018-08-09T00:34:57.239Z,17.30
2018-08-09T00:37:26.455Z,17.10
2018-08-09T00:39:56.683Z,17.80
2018-08-09T00:42:24.755Z,17.60
2018-08-09T00:44:55.022Z,17.80
2018-08-09T00:47:23.720Z,18.10
2018-08-09T00:49:53.178Z,17.40
2018-08-09T00:52:22.498Z,17.80
2018-08-09T00:54:51.110Z,17.50
2018-08-09T00:57:23.067Z,17.30
2018-08-09T00:59:52.520Z,17.90
2018-08-09T01:02:23.967Z,17.90
2018-08-09T01:04:52.586Z,17.20
2018-08-09T01:07:21.212Z,17.70
2018-08-09T01:09:50.546Z,17.80
2018-08-09T01:12:19.238Z,17.20
2018-08-09T01:14:47.895Z,17.80
2018-08-09T01:17:17.421Z,17.20
2018-08-09T01:19:46.177Z,17.70
2018-08-09T01:22:14.667Z,17.60
2018-08-09T01:24:43.823Z,17.70
2018-08-09T01:27:13.375Z,17.90
2018-08-09T01:29:42.030Z,17.80
2018-08-09T01:32:10.698Z,17.30
2018-08-09T01:34:39.338Z,16.80
2018-08-09T01:37:09.196Z,17.50
2018-08-09T01:39:38.078Z,17.40
2018-08-09T01:42:28.503Z,17.50
2018-08-09T01:44:57.811Z,17.30
2018-08-09T01:47:26.469Z,16.90
2018-08-09T01:49:55.504Z,17.40
2018-08-09T01:52:23.984Z,17.00
2018-08-09T01:54:52.263Z,17.30
2018-08-09T01:57:21.651Z,17.40
2018-08-09T01:59:50.943Z,17.50
2018-08-09T02:02:20.195Z,17.60
2018-08-09T02:04:50.441Z,17.60
2018-08-09T02:07:19.401Z,17.60
2018-08-09T02:09:47.926Z,17.30
2018-08-09T02:12:16.478Z,17.20
2018-08-09T02:14:45.922Z,17.70
2018-08-09T02:17:15.024Z,18.10
2018-08-09T02:19:43.732Z,18.10
2018-08-09T02:22:12.326Z,18.10
2018-08-09T02:24:41.322Z,18.00
2018-08-09T02:27:09.642Z,18.40
2018-08-09T02:29:39.195Z,18.30
2018-08-09T02:32:07.964Z,18.40
2018-08-09T02:34:36.797Z,18.30
2018-08-09T02:37:06.263Z,18.10
2018-08-09T02:39:34.328Z,18.10
2018-08-09T02:42:04.093Z,18.30
2018-08-09T02:44:32.785Z,18.20
2018-08-09T02:47:03.142Z,18.10
2018-08-09T02:49:31.798Z,17.80
2018-08-09T02:52:00.710Z,18.10
2018-08-09T02:54:29.844Z,18.10
2018-08-09T02:56:58.921Z,18.20
2018-08-09T02:59:27.539Z,18.30
2018-08-09T03:01:56.134Z,18.50
2018-08-09T03:04:26.854Z,18.10
2018-08-09T03:06:55.434Z,17.70
2018-08-09T03:09:24.323Z,17.70
2018-08-09T03:11:52.963Z,17.90
2018-08-09T03:14:22.318Z,17.90
2018-08-09T03:16:50.914Z,18.10
2018-08-09T03:19:19.535Z,17.80
2018-08-09T03:21:48.106Z,17.40
2018-08-09T03:24:17.287Z,17.60
2018-08-09T03:26:46.253Z,17.10
2018-08-09T03:29:14.938Z,17.10
2018-08-09T03:31:43.557Z,17.00
2018-08-09T03:34:12.946Z,17.40
2018-08-09T03:36:43.215Z,16.90
2018-08-09T03:39:12.450Z,17.00
2018-08-09T03:41:41.527Z,16.90
2018-08-09T03:44:11.017Z,17.10
2018-08-09T03:46:39.681Z,17.30
2018-08-09T03:49:10.201Z,17.10
2018-08-09T03:51:40.542Z,16.80
2018-08-09T03:54:10.693Z,16.60
2018-08-09T03:56:39.736Z,17.30
2018-08-09T03:59:09.236Z,16.60
2018-08-09T04:01:37.711Z,17.20
2018-08-09T04:04:07.908Z,16.80
2018-08-09T04:06:36.583Z,17.10
2018-08-09T04:09:09.475Z,16.90
2018-08-09T04:11:38.391Z,17.30
2018-08-09T04:14:07.159Z,17.00
2018-08-09T04:16:36.427Z,17.20
2018-08-09T04:19:05.111Z,16.90
2018-08-09T04:21:33.820Z,17.50
2018-08-09T04:24:02.231Z,17.60
2018-08-09T04:26:31.731Z,17.90
2018-08-09T04:29:01.266Z,18.10
2018-08-09T04:31:31.479Z,18.10
2018-08-09T04:34:01.539Z,18.10
2018-08-09T04:36:30.326Z,18.30
2018-08-09T04:38:59.635Z,17.90
2018-08-09T04:41:28.923Z,17.90
2018-08-09T04:43:57.291Z,17.80
2018-08-09T04:46:26.427Z,17.70
2018-08-09T04:48:54.618Z,18.10
2018-08-09T04:51:24.044Z,18.40
2018-08-09T04:53:53.678Z,18.60
2018-08-09T04:56:23.118Z,18.50
2018-08-09T04:58:51.862Z,18.50
2018-08-09T05:01:21.228Z,18.40
2018-08-09T05:03:50.940Z,18.20
2018-08-09T05:06:19.626Z,18.00
2018-08-09T05:08:49.157Z,18.60
2018-08-09T05:11:18.811Z,18.90
2018-08-09T05:13:48.398Z,18.70
2018-08-09T05:16:17.092Z,19.20
2018-08-09T05:18:46.379Z,18.80
2018-08-09T05:21:14.936Z,19.80
2018-08-09T05:23:43.783Z,20.00
2018-08-09T05:26:12.447Z,20.10
2018-08-09T05:28:41.062Z,19.70
2018-08-09T05:31:12.397Z,20.10
2018-08-09T05:33:41.788Z,20.00
2018-08-09T05:36:11.508Z,19.80
2018-08-09T05:38:41.206Z,20.40
2018-08-09T05:41:10.857Z,20.30
2018-08-09T05:43:39.124Z,20.30
2018-08-09T05:46:08.707Z,20.70
2018-08-09T05:48:37.280Z,20.70
2018-08-09T05:51:06.734Z,20.40
2018-08-09T05:53:35.422Z,21.30
2018-08-09T05:56:04.457Z,21.30
2018-08-09T05:58:34.068Z,21.50
2018-08-09T06:01:05.008Z,21.10
2018-08-09T06:03:34.025Z,21.20
2018-08-09T06:06:02.819Z,21.60
2018-08-09T06:08:31.387Z,21.30
2018-08-09T06:11:01.305Z,22.50
2018-08-09T06:13:33.677Z,22.00
2018-08-09T06:16:02.245Z,22.10
2018-08-09T06:18:30.900Z,22.50
2018-08-09T06:20:59.593Z,22.30
2018-08-09T06:23:28.241Z,22.00
2018-08-09T06:25:56.805Z,22.50
2018-08-09T06:28:28.556Z,22.10
2018-08-09T06:30:58.208Z,23.20
2018-08-09T06:33:27.927Z,23.00
2018-08-09T06:35:58.364Z,23.10
2018-08-09T06:38:27.886Z,22.90
2018-08-09T06:40:58.051Z,23.50
2018-08-09T06:43:29.711Z,23.10
2018-08-09T06:45:58.891Z,23.20
2018-08-09T06:48:28.318Z,23.20
2018-08-09T06:50:58.047Z,23.30
2018-08-09T06:53:27.051Z,23.90
2018-08-09T06:55:55.981Z,23.90
2018-08-09T06:58:25.434Z,23.70
2018-08-09T07:00:54.634Z,24.60
2018-08-09T07:03:23.217Z,24.90
2018-08-09T07:05:53.799Z,25.10
2018-08-09T07:08:25.048Z,24.70
2018-08-09T07:10:55.475Z,24.70
2018-08-09T07:13:24.837Z,24.90
2018-08-09T07:15:53.449Z,25.10
2018-08-09T07:18:22.968Z,24.90
2018-08-09T07:20:52.324Z,24.90
2018-08-09T07:23:20.989Z,25.30
2018-08-09T07:25:51.042Z,25.30
2018-08-09T07:28:19.371Z,25.40
2018-08-09T07:30:48.067Z,25.00
2018-08-09T07:33:17.308Z,24.80
2018-08-09T07:35:46.074Z,25.40
2018-08-09T07:38:14.590Z,25.50
2018-08-09T07:40:43.616Z,25.60
2018-08-09T07:43:12.964Z,25.40
2018-08-09T07:45:41.548Z,25.30
2018-08-09T07:48:11.970Z,25.10
2018-08-09T07:50:44.470Z,25.50
2018-08-09T07:53:13.302Z,25.90
2018-08-09T07:55:41.949Z,25.10
2018-08-09T07:58:11.237Z,25.80
2018-08-09T08:00:39.861Z,25.80
2018-08-09T08:03:08.186Z,25.70
2018-08-09T08:05:38.371Z,26.30
2018-08-09T08:08:08.306Z,25.90
2018-08-09T08:10:36.998Z,26.30
2018-08-09T08:13:05.710Z,26.30
2018-08-09T08:15:34.499Z,26.70
2018-08-09T08:18:03.392Z,26.70
2018-08-09T08:20:34.205Z,27.40
2018-08-09T08:23:04.083Z,26.70
2018-08-09T08:25:33.240Z,27.10
2018-08-09T08:28:02.430Z,26.50
2018-08-09T08:30:31.133Z,26.30
2018-08-09T08:33:00.985Z,26.00
2018-08-09T08:35:31.293Z,26.50
2018-08-09T08:38:01.913Z,26.60
2018-08-09T08:40:30.579Z,26.50
2018-08-09T08:43:00.407Z,26.90
2018-08-09T08:45:29.838Z,26.80
2018-08-09T08:47:59.589Z,26.80
2018-08-09T08:50:29.679Z,26.80
2018-08-09T08:52:59.028Z,26.70
2018-08-09T08:55:30.212Z,26.60
2018-08-09T08:57:59.684Z,26.40
2018-08-09T09:00:30.278Z,26.50
2018-08-09T09:02:59.820Z,26.30
2018-08-09T09:05:31.174Z,26.40
2018-08-09T09:08:01.445Z,26.40
2018-08-09T09:10:31.826Z,26.10
2018-08-09T09:13:00.852Z,26.00
2018-08-09T09:15:29.856Z,26.30
2018-08-09T09:17:58.526Z,26.50
2018-08-09T09:20:27.904Z,26.00
2018-08-09T09:22:56.633Z,25.80
2018-08-09T09:25:26.339Z,25.90
2018-08-09T09:27:55.113Z,25.10
2018-08-09T09:30:23.849Z,24.90
2018-08-09T09:32:52.805Z,25.30
2018-08-09T09:35:21.572Z,24.80
2018-08-09T09:37:50.290Z,25.20
2018-08-09T09:40:19.208Z,25.30
2018-08-09T09:42:47.978Z,25.50
2018-08-09T09:45:17.018Z,25.70
2018-08-09T09:47:45.699Z,26.10
2018-08-09T09:50:14.867Z,26.40
2018-08-09T09:52:43.595Z,27.30
2018-08-09T09:55:12.231Z,27.60
2018-08-09T09:57:41.097Z,29.00
2018-08-09T10:00:16.219Z,28.80
2018-08-09T10:02:45.435Z,29.00
2018-08-09T10:05:14.867Z,29.20
2018-08-09T10:07:44.019Z,29.60
2018-08-09T10:10:14.039Z,29.40
2018-08-09T10:12:42.680Z,29.40
2018-08-09T10:15:11.860Z,29.20
2018-08-09T10:17:40.718Z,29.10
2018-08-09T10:20:10.573Z,29.20
2018-08-09T10:22:39.349Z,28.90
2018-08-09T10:25:08.273Z,29.00
2018-08-09T10:27:37.077Z,28.20
2018-08-09T10:30:07.596Z,28.90
2018-08-09T10:32:37.263Z,29.00
2018-08-09T10:35:06.350Z,28.50
2018-08-09T10:37:37.797Z,28.60
2018-08-09T10:40:06.548Z,28.50
2018-08-09T10:42:36.314Z,28.60
2018-08-09T10:45:06.023Z,28.50
2018-08-09T10:47:35.089Z,28.00
2018-08-09T10:50:05.735Z,27.80
2018-08-09T10:52:34.629Z,28.20
2018-08-09T10:55:03.705Z,27.80
2018-08-09T10:57:32.812Z,28.00
2018-08-09T11:00:01.586Z,28.40
2018-08-09T11:02:30.299Z,28.30
2018-08-09T11:05:01.171Z,28.30
2018-08-09T11:07:29.946Z,28.30
2018-08-09T11:09:58.522Z,28.50
2018-08-09T11:12:27.874Z,28.60
2018-08-09T11:14:57.393Z,28.40
2018-08-09T11:17:27.128Z,27.90
2018-08-09T11:19:55.820Z,27.70
2018-08-09T11:22:25.533Z,27.80
2018-08-09T11:24:54.935Z,27.20
2018-08-09T11:27:24.665Z,26.70
2018-08-09T11:29:53.317Z,26.00
2018-08-09T11:32:22.298Z,26.10
2018-08-09T11:34:50.988Z,25.40
2018-08-09T11:37:20.492Z,25.60
2018-08-09T11:39:50.777Z,25.30
2018-08-09T11:42:19.518Z,25.00
2018-08-09T11:44:48.808Z,25.40
2018-08-09T11:47:17.415Z,25.50
2018-08-09T11:49:46.217Z,24.90
2018-08-09T11:52:16.211Z,24.90
2018-08-09T11:54:45.076Z,25.10
2018-08-09T11:57:14.459Z,26.10
2018-08-09T11:59:43.170Z,27.30
2018-08-09T12:02:11.931Z,26.40
2018-08-09T12:04:40.948Z,27.00
2018-08-09T12:07:09.862Z,27.20
2018-08-09T12:09:38.778Z,27.10
2018-08-09T12:12:08.627Z,26.50
2018-08-09T12:14:38.389Z,26.60
2018-08-09T12:17:07.520Z,27.40
2018-08-09T12:19:37.126Z,26.40
2018-08-09T12:22:06.900Z,26.00
2018-08-09T12:24:35.334Z,26.30
2018-08-09T12:27:03.923Z,25.70
2018-08-09T12:29:33.198Z,25.00
2018-08-09T12:32:05.833Z,25.60
2018-08-09T12:34:34.545Z,25.20
2018-08-09T12:37:04.437Z,25.80
2018-08-09T12:39:34.788Z,25.20
2018-08-09T12:42:03.163Z,25.70
2018-08-09T12:44:32.948Z,24.80
2018-08-09T12:47:01.749Z,25.00
2018-08-09T12:49:30.686Z,25.20
2018-08-09T12:51:59.502Z,24.70
2018-08-09T12:54:28.487Z,24.80
2018-08-09T12:56:58.034Z,24.90
2018-08-09T12:59:26.899Z,24.90
2018-08-09T13:01:56.527Z,24.70
2018-08-09T13:04:25.909Z,25.50
2018-08-09T13:06:54.846Z,25.30
2018-08-09T13:09:23.283Z,25.20
2018-08-09T13:11:54.074Z,25.30
2018-08-09T13:14:23.594Z,25.70
2018-08-09T13:16:53.893Z,25.60
2018-08-09T13:19:23.259Z,25.20
2018-08-09T13:21:53.433Z,25.00
2018-08-09T13:24:22.724Z,25.60
2018-08-09T13:26:52.145Z,25.80
2018-08-09T13:29:20.919Z,25.80
2018-08-09T13:31:49.977Z,25.70
2018-08-09T13:34:19.084Z,25.50
2018-08-09T13:36:48.291Z,25.20
2018-08-09T13:39:17.808Z,25.70
2018-08-09T13:41:47.732Z,25.00
2018-08-09T13:44:17.032Z,25.50
2018-08-09T13:46:46.779Z,25.40
2018-08-09T13:49:15.543Z,25.50
2018-08-09T13:51:44.315Z,25.10
2018-08-09T13:54:13.985Z,24.80
2018-08-09T13:56:42.718Z,24.90
2018-08-09T13:59:11.398Z,25.50
2018-08-09T14:01:40.354Z,25.20
2018-08-09T14:04:09.757Z,25.60
2018-08-09T14:06:39.079Z,25.80
2018-08-09T14:09:12.076Z,26.30
2018-08-09T14:11:44.955Z,26.10
2018-08-09T14:14:13.779Z,25.70
2018-08-09T14:16:43.979Z,25.70
2018-08-09T14:19:13.484Z,25.90
2018-08-09T14:21:42.824Z,26.10
2018-08-09T14:24:12.375Z,25.50
2018-08-09T14:26:41.700Z,26.00
2018-08-09T14:29:12.588Z,25.50
2018-08-09T14:31:41.346Z,25.60
2018-08-09T14:34:10.001Z,24.90
2018-08-09T14:36:39.868Z,25.40
2018-08-09T14:39:11.064Z,25.10
2018-08-09T14:41:40.742Z,25.30
2018-08-09T14:44:09.570Z,25.40
2018-08-09T14:46:38.487Z,25.50
2018-08-09T14:49:07.275Z,25.70
2018-08-09T14:51:36.142Z,25.20
2018-08-09T14:54:05.223Z,25.40
2018-08-09T14:56:33.961Z,25.40
2018-08-09T14:59:02.857Z,25.20
2018-08-09T15:01:32.417Z,25.40
2018-08-09T15:04:02.200Z,25.50
2018-08-09T15:06:31.873Z,26.40
2018-08-09T15:09:01.751Z,26.60
2018-08-09T15:11:30.805Z,26.60
2018-08-09T15:14:00.940Z,26.30
2018-08-09T15:16:31.673Z,27.30
2018-08-09T15:19:01.225Z,27.20
2018-08-09T15:21:30.957Z,26.40
2018-08-09T15:24:00.514Z,27.10
2018-08-09T15:26:30.431Z,26.40
2018-08-09T15:29:00.103Z,26.70
2018-08-09T15:31:29.872Z,27.10
2018-08-09T15:33:59.462Z,26.70
2018-08-09T15:36:28.216Z,26.40
2018-08-09T15:38:57.505Z,26.30
2018-08-09T15:41:26.383Z,26.20
2018-08-09T15:43:55.680Z,27.00
2018-08-09T15:46:25.247Z,27.10
2018-08-09T15:48:54.389Z,27.50
2018-08-09T15:51:23.251Z,27.60
2018-08-09T15:53:52.079Z,27.90
2018-08-09T15:56:22.049Z,28.70
2018-08-09T15:58:52.110Z,28.60
2018-08-09T16:01:21.029Z,28.70
2018-08-09T16:03:51.075Z,28.80
2018-08-09T16:06:19.778Z,28.70
2018-08-09T16:08:49.531Z,29.00
2018-08-09T16:11:19.222Z,28.70
2018-08-09T16:13:52.303Z,29.30
2018-08-09T16:16:21.233Z,29.00
2018-08-09T16:18:55.107Z,28.40
2018-08-09T16:21:24.871Z,27.90
2018-08-09T16:23:55.285Z,27.70
2018-08-09T16:26:23.759Z,26.90
2018-08-09T16:28:52.645Z,26.80
2018-08-09T16:31:21.734Z,25.40
2018-08-09T16:33:51.784Z,25.70
2018-08-09T16:36:20.555Z,24.50
2018-08-09T16:38:49.448Z,24.40
2018-08-09T16:41:20.576Z,24.10
2018-08-09T16:43:49.375Z,24.40
2018-08-09T16:46:18.275Z,23.90
2018-08-09T16:48:47.504Z,24.60
2018-08-09T16:51:16.878Z,24.20
2018-08-09T16:53:45.480Z,23.90
2018-08-09T16:56:16.299Z,23.80
2018-08-09T16:58:45.857Z,23.60
2018-08-09T17:01:16.139Z,22.70
2018-08-09T17:03:44.877Z,22.30
2018-08-09T17:06:13.593Z,22.20
2018-08-09T17:08:43.164Z,22.80
2018-08-09T17:11:11.516Z,22.20
2018-08-09T17:13:40.105Z,21.90
2018-08-09T17:16:08.843Z,22.30
2018-08-09T17:18:37.819Z,22.00
2018-08-09T17:21:07.202Z,21.60
2018-08-09T17:23:36.797Z,21.90
2018-08-09T17:26:05.083Z,21.20
2018-08-09T17:28:34.393Z,21.40
2018-08-09T17:31:02.987Z,21.60
2018-08-09T17:33:33.445Z,21.40
2018-08-09T17:36:02.439Z,20.60
2018-08-09T17:38:32.324Z,21.00
2018-08-09T17:41:01.947Z,21.00
2018-08-09T17:43:30.359Z,20.70
2018-08-09T17:46:01.549Z,20.70
2018-08-09T17:48:31.288Z,20.80
2018-08-09T17:51:02.733Z,20.90
2018-08-09T17:53:31.829Z,20.80
2018-08-09T17:56:02.206Z,20.90
2018-08-09T17:58:31.124Z,20.90
2018-08-09T18:00:59.744Z,20.80
2018-08-09T18:03:29.779Z,21.00
2018-08-09T18:06:00.530Z,20.40
2018-08-09T18:08:29.596Z,20.70
2018-08-09T18:10:58.286Z,20.30
2018-08-09T18:13:29.526Z,20.70
2018-08-09T18:15:59.538Z,20.40
2018-08-09T18:18:28.296Z,20.20
2018-08-09T18:20:58.500Z,20.50
2018-08-09T18:23:28.703Z,20.20
2018-08-09T18:25:57.518Z,20.20
2018-08-09T18:28:27.011Z,20.00
2018-08-09T18:30:56.608Z,19.80
2018-08-09T18:33:25.548Z,19.30
2018-08-09T18:35:54.248Z,19.60
2018-08-09T18:38:23.956Z,19.90
2018-08-09T18:40:53.084Z,20.10
2018-08-09T18:43:24.562Z,19.80
2018-08-09T18:45:54.225Z,19.50
2018-08-09T18:48:23.202Z,19.50
2018-08-09T18:50:53.821Z,19.50
2018-08-09T18:53:22.366Z,19.50
2018-08-09T18:55:51.047Z,19.70
2018-08-09T18:58:21.779Z,19.40
2018-08-09T19:00:51.635Z,19.30
2018-08-09T19:03:20.180Z,19.10
2018-08-09T19:05:48.924Z,19.50
2018-08-09T19:08:17.983Z,19.50
2018-08-09T19:10:48.219Z,19.70
2018-08-09T19:13:17.093Z,19.60
2018-08-09T19:15:46.702Z,19.50
2018-08-09T19:18:17.394Z,18.90
2018-08-09T19:20:47.185Z,18.90
2018-08-09T19:23:17.140Z,19.10
2018-08-09T19:25:48.541Z,18.80
2018-08-09T19:28:17.136Z,18.50
2018-08-09T19:30:47.037Z,18.60
2018-08-09T19:33:16.795Z,18.20
2018-08-09T19:35:46.759Z,18.60
2018-08-09T19:38:15.525Z,18.70
2018-08-09T19:40:44.037Z,18.60
2018-08-09T19:43:15.052Z,18.00
2018-08-09T19:45:46.845Z,18.40
2018-08-09T19:48:19.700Z,18.10
2018-08-09T19:50:49.502Z,18.10
2018-08-09T19:53:18.287Z,18.30
2018-08-09T19:55:47.612Z,17.50
2018-08-09T19:58:17.784Z,17.90
2018-08-09T20:00:47.287Z,18.00
2018-08-09T20:03:15.856Z,17.50
2018-08-09T20:05:44.616Z,17.90
2018-08-09T20:08:14.375Z,18.10
2018-08-09T20:10:43.278Z,18.20
2018-08-09T20:13:11.784Z,17.50
2018-08-09T20:15:40.628Z,18.30
2018-08-09T20:18:10.117Z,17.80
2018-08-09T20:20:38.914Z,17.80
2018-08-09T20:23:07.908Z,17.60
2018-08-09T20:25:37.371Z,18.00
2018-08-09T20:28:06.414Z,18.20
2018-08-09T20:30:39.554Z,17.70
2018-08-09T20:33:08.680Z,18.10
2018-08-09T20:35:39.139Z,17.30
2018-08-09T20:38:08.147Z,17.20
2018-08-09T20:40:38.029Z,17.90
2018-08-09T20:43:06.928Z,17.70
2018-08-09T20:45:36.485Z,17.60
2018-08-09T20:48:07.701Z,17.50
2018-08-09T20:50:37.502Z,17.80
2018-08-09T20:53:07.730Z,17.40
2018-08-09T20:55:36.925Z,17.40
2018-08-09T20:58:07.336Z,17.20
2018-08-09T21:00:36.642Z,17.40
2018-08-09T21:03:06.404Z,16.80
2018-08-09T21:05:38.392Z,16.80
2018-08-09T21:08:09.816Z,16.90
2018-08-09T21:10:40.113Z,16.80
2018-08-09T21:13:10.748Z,16.30
2018-08-09T21:15:39.670Z,16.80
2018-08-09T21:18:09.508Z,16.60
2018-08-09T21:20:38.529Z,16.00
2018-08-09T21:23:08.452Z,16.30
2018-08-09T21:25:37.120Z,16.10
2018-08-09T21:28:05.942Z,15.70
2018-08-09T21:30:34.598Z,16.10
2018-08-09T21:33:03.459Z,15.40
2018-08-09T21:35:34.379Z,15.90
2018-08-09T21:38:03.322Z,15.80
2018-08-09T21:40:32.829Z,16.10
2018-08-09T21:43:04.890Z,16.00
2018-08-09T21:45:34.276Z,15.80
2018-08-09T21:48:03.207Z,15.90
2018-08-09T21:50:32.100Z,15.80
2018-08-09T21:53:02.797Z,15.80
2018-08-09T21:55:33.679Z,15.90
2018-08-09T21:58:03.119Z,15.70
2018-08-09T22:01:06.376Z,15.40
2018-08-09T22:03:37.068Z,15.80
2018-08-09T22:06:13.818Z,15.60
2018-08-09T22:08:48.401Z,15.60
2018-08-09T22:11:23.924Z,15.90
2018-08-09T22:14:00.496Z,15.60
2018-08-09T22:16:36.027Z,15.50
2018-08-09T22:19:10.270Z,15.60
2018-08-09T22:21:46.175Z,15.40
2018-08-09T22:24:15.745Z,15.90
2018-08-09T22:26:44.781Z,15.90
2018-08-09T22:29:14.326Z,15.70
2018-08-09T22:31:45.376Z,15.50
2018-08-09T22:34:13.966Z,15.20
2018-08-09T22:36:42.758Z,15.70
2018-08-09T22:39:13.209Z,15.90
2018-08-09T22:41:43.604Z,15.80
2018-08-09T22:44:17.340Z,16.10
2018-08-09T22:46:47.603Z,16.20
2018-08-09T22:49:17.734Z,16.10
2018-08-09T22:51:48.429Z,15.30
2018-08-09T22:54:17.831Z,16.00
2018-08-09T22:56:46.330Z,16.00
2018-08-09T22:59:20.051Z,16.00
2018-08-09T23:01:49.425Z,15.30
2018-08-09T23:04:19.303Z,15.80
2018-08-09T23:06:48.601Z,15.70
2018-08-09T23:09:19.525Z,15.60
2018-08-09T23:11:49.821Z,15.90
2018-08-09T23:14:19.793Z,15.70
2018-08-09T23:16:50.600Z,15.90
2018-08-09T23:19:19.468Z,15.80
2018-08-09T23:21:48.171Z,16.30
2018-08-09T23:24:18.410Z,16.10
2018-08-09T23:26:48.647Z,15.90
2018-08-09T23:29:19.321Z,16.40
2018-08-09T23:31:52.358Z,15.80
2018-08-09T23:34:21.357Z,15.80
2018-08-09T23:36:51.057Z,15.80
2018-08-09T23:39:20.933Z,15.10
2018-08-09T23:41:51.525Z,15.60
2018-08-09T23:44:20.435Z,15.30
2018-08-09T23:46:50.377Z,15.90
2018-08-09T23:49:19.403Z,15.50
2018-08-09T23:51:49.225Z,15.50
2018-08-09T23:54:18.056Z,15.70
2018-08-09T23:56:48.750Z,15.40
2018-08-09T23:59:18.578Z,15.60
